Nearby METAR Reports

 

LFSL - Brive/Souillac, France
Distance from station: N 70km
Mise à jour: 22/06/2024 23:00
Few Clouds
Few Clouds
 Wind from varies
Vent: varies 6 km/h
Température: 14°C
Point de rosée: 13°C
Humidité: 94%
Baromètre: 1021 hPa
Clouds: Few Clouds
Visibility: 10 km
Cloud details: Few Clouds 152 m
2024/06/22 21:00 LFSL 222100Z AUTO VRB03KT 9999 FEW005 14/13 Q1021
LFCR - Rodez/Marcillac, France
Distance from station: E 71km
Mise à jour: 22/06/2024 23:00
couvert
couvert
 Wind from ONO
Vent: ONO 13 km/h
Température: 12°C
Point de rosée: 12°C
Humidité: 100%
Baromètre: 1021 hPa
Clouds: couvert
Visibility: 10 km
Cloud details: nuageux 183 m
couvert 701 m
2024/06/22 21:00 LFCR 222100Z AUTO 29007KT 9999 BKN006 OVC023 12/12 Q1021 TEMPO 1000 BR OVC003
 
LFBA - Agen/La Garenne, France
Distance from station: OSO 82km
Mise à jour: 22/06/2024 23:00
Light drizzle, couvert
Light drizzle, couvert
 Wind from O
Vent: O 11 km/h
Température: 15°C
Point de rosée: 14°C
Humidité: 94%
Baromètre: 1021 hPa
Résumé: Light Drizzle
Clouds: couvert
Visibility: 9 km
Cloud details: nuageux 244 m
couvert 366 m
2024/06/22 21:00 LFBA 222100Z AUTO 27006KT 9000 -DZ BKN008 OVC012 15/14 Q1021
LFLW - Aurillac (aut), France
Distance from station: NE 85km
Mise à jour: 22/06/2024 23:00
Drizzle, couvert
Drizzle, couvert
 Wind from O
Vent: O 9 km/h
Température: 13°C
Point de rosée: 12°C
Humidité: 94%
Baromètre: 1021 hPa
Résumé: Drizzle
Clouds: couvert
Visibility: 6 km
Cloud details: couvert 183 m
2024/06/22 21:00 LFLW 222100Z AUTO 28005KT 250V310 6000 DZ OVC006 13/12 Q1021
 
LFBO - Toulouse/Blagnac, France
Distance from station: S 90km
Mise à jour: 22/06/2024 23:00
pluie légère, couvert
pluie légère, couvert
 Wind from ONO
Vent: ONO 22 km/h
Température: 16°C
Point de rosée: 15°C
Humidité: 94%
Baromètre: 1022 hPa
Résumé: pluie légère
Clouds: couvert
Visibility: 6 km
Cloud details: nuageux 274 m
nuageux 792 m
couvert 945 m
2024/06/22 21:00 LFBO 222100Z AUTO 29012KT 260V330 6000 -RA BKN009 BKN026 OVC031 16/15 Q1022 TEMPO 4000 -RA
LFBE - Bergerac/Roumani, France
Distance from station: ONO 95km
Mise à jour: 22/06/2024 23:00
nuageux
nuageux
 Wind from O
Vent: O 9 km/h
Température: 15°C
Point de rosée: 15°C
Humidité: 100%
Baromètre: 1021 hPa
Clouds: nuageux
Visibility: 10 km
Cloud details: nuageux 305 m
nuageux 1250 m
nuageux 2195 m
2024/06/22 21:00 LFBE 222100Z AUTO 28005KT 9999 BKN010 BKN041 BKN072 15/15 Q1021